sensor_id;sensor_type;location;lat;lon;timestamp;P1;durP1;ratioP1;P2;durP2;ratioP2
29196;SDS011;62796;42.654;23.316;2023-05-15T00:02:08;8.18;;;5.80;;
29196;SDS011;62796;42.654;23.316;2023-05-15T00:04:34;6.18;;;5.35;;
29196;SDS011;62796;42.654;23.316;2023-05-15T00:06:59;7.72;;;6.05;;
29196;SDS011;62796;42.654;23.316;2023-05-15T00:09:25;8.57;;;6.43;;
29196;SDS011;62796;42.654;23.316;2023-05-15T00:11:50;9.60;;;5.88;;
29196;SDS011;62796;42.654;23.316;2023-05-15T00:14:16;6.22;;;5.57;;
29196;SDS011;62796;42.654;23.316;2023-05-15T00:16:41;6.75;;;5.65;;
29196;SDS011;62796;42.654;23.316;2023-05-15T00:19:07;8.63;;;5.95;;
29196;SDS011;62796;42.654;23.316;2023-05-15T00:21:32;7.10;;;5.90;;
29196;SDS011;62796;42.654;23.316;2023-05-15T00:23:57;7.78;;;6.25;;
29196;SDS011;62796;42.654;23.316;2023-05-15T00:26:23;6.72;;;6.00;;
29196;SDS011;62796;42.654;23.316;2023-05-15T00:28:49;9.20;;;6.75;;
29196;SDS011;62796;42.654;23.316;2023-05-15T00:31:15;9.02;;;6.70;;
29196;SDS011;62796;42.654;23.316;2023-05-15T00:33:40;10.48;;;6.47;;
29196;SDS011;62796;42.654;23.316;2023-05-15T00:36:06;8.02;;;6.30;;
29196;SDS011;62796;42.654;23.316;2023-05-15T00:38:32;8.35;;;6.65;;
29196;SDS011;62796;42.654;23.316;2023-05-15T00:40:58;8.57;;;6.65;;
29196;SDS011;62796;42.654;23.316;2023-05-15T00:43:25;8.63;;;6.88;;
29196;SDS011;62796;42.654;23.316;2023-05-15T00:45:51;7.47;;;6.03;;
29196;SDS011;62796;42.654;23.316;2023-05-15T00:48:17;8.30;;;6.57;;
29196;SDS011;62796;42.654;23.316;2023-05-15T00:50:43;10.65;;;6.90;;
29196;SDS011;62796;42.654;23.316;2023-05-15T00:53:09;10.23;;;8.07;;
29196;SDS011;62796;42.654;23.316;2023-05-15T00:55:35;11.55;;;7.93;;
29196;SDS011;62796;42.654;23.316;2023-05-15T00:58:01;10.25;;;8.20;;
29196;SDS011;62796;42.654;23.316;2023-05-15T01:00:27;12.82;;;8.45;;
29196;SDS011;62796;42.654;23.316;2023-05-15T01:02:55;10.05;;;8.10;;
29196;SDS011;62796;42.654;23.316;2023-05-15T01:05:21;11.50;;;8.32;;
29196;SDS011;62796;42.654;23.316;2023-05-15T01:07:48;9.68;;;8.30;;
29196;SDS011;62796;42.654;23.316;2023-05-15T01:10:19;10.73;;;8.27;;
29196;SDS011;62796;42.654;23.316;2023-05-15T01:12:45;12.40;;;9.00;;
29196;SDS011;62796;42.654;23.316;2023-05-15T01:15:11;9.15;;;7.68;;
29196;SDS011;62796;42.654;23.316;2023-05-15T01:17:37;11.80;;;8.52;;
29196;SDS011;62796;42.654;23.316;2023-05-15T01:20:03;10.73;;;8.23;;
29196;SDS011;62796;42.654;23.316;2023-05-15T01:22:43;10.73;;;8.50;;
29196;SDS011;62796;42.654;23.316;2023-05-15T01:28:04;11.55;;;8.90;;
29196;SDS011;62796;42.654;23.316;2023-05-15T01:30:37;12.98;;;9.85;;
29196;SDS011;62796;42.654;23.316;2023-05-15T01:38:25;14.77;;;9.77;;
29196;SDS011;62796;42.654;23.316;2023-05-15T01:41:01;12.73;;;10.40;;
29196;SDS011;62796;42.654;23.316;2023-05-15T01:43:30;14.10;;;9.65;;
29196;SDS011;62796;42.654;23.316;2023-05-15T01:45:59;12.23;;;10.00;;
29196;SDS011;62796;42.654;23.316;2023-05-15T01:48:25;14.65;;;10.02;;
29196;SDS011;62796;42.654;23.316;2023-05-15T01:50:53;13.00;;;9.18;;
29196;SDS011;62796;42.654;23.316;2023-05-15T01:53:25;13.45;;;9.32;;
29196;SDS011;62796;42.654;23.316;2023-05-15T01:55:51;14.90;;;10.23;;
29196;SDS011;62796;42.654;23.316;2023-05-15T01:58:17;12.20;;;9.63;;
29196;SDS011;62796;42.654;23.316;2023-05-15T02:00:44;13.15;;;9.60;;
29196;SDS011;62796;42.654;23.316;2023-05-15T02:03:10;14.50;;;10.25;;
29196;SDS011;62796;42.654;23.316;2023-05-15T02:05:36;13.80;;;10.05;;
29196;SDS011;62796;42.654;23.316;2023-05-15T02:08:02;13.35;;;10.10;;
29196;SDS011;62796;42.654;23.316;2023-05-15T02:10:29;14.68;;;10.05;;
29196;SDS011;62796;42.654;23.316;2023-05-15T02:12:57;15.38;;;10.90;;
29196;SDS011;62796;42.654;23.316;2023-05-15T02:15:24;16.20;;;11.60;;
29196;SDS011;62796;42.654;23.316;2023-05-15T02:17:50;15.32;;;12.23;;
29196;SDS011;62796;42.654;23.316;2023-05-15T02:20:16;14.75;;;11.48;;
29196;SDS011;62796;42.654;23.316;2023-05-15T02:22:41;12.98;;;11.00;;
29196;SDS011;62796;42.654;23.316;2023-05-15T02:25:07;19.92;;;11.60;;
29196;SDS011;62796;42.654;23.316;2023-05-15T02:27:46;16.30;;;11.68;;
29196;SDS011;62796;42.654;23.316;2023-05-15T02:38:17;22.55;;;16.17;;
29196;SDS011;62796;42.654;23.316;2023-05-15T02:40:47;16.55;;;12.27;;
29196;SDS011;62796;42.654;23.316;2023-05-15T02:43:15;18.58;;;12.60;;
29196;SDS011;62796;42.654;23.316;2023-05-15T02:45:42;16.92;;;11.93;;
29196;SDS011;62796;42.654;23.316;2023-05-15T02:48:11;15.95;;;13.23;;
29196;SDS011;62796;42.654;23.316;2023-05-15T02:50:37;15.85;;;12.52;;
29196;SDS011;62796;42.654;23.316;2023-05-15T02:53:03;15.90;;;12.70;;
29196;SDS011;62796;42.654;23.316;2023-05-15T02:55:30;14.88;;;12.55;;
29196;SDS011;62796;42.654;23.316;2023-05-15T02:57:56;18.20;;;12.70;;
29196;SDS011;62796;42.654;23.316;2023-05-15T03:00:22;16.10;;;13.45;;
29196;SDS011;62796;42.654;23.316;2023-05-15T03:02:47;17.52;;;12.50;;
29196;SDS011;62796;42.654;23.316;2023-05-15T03:05:13;17.05;;;12.35;;
29196;SDS011;62796;42.654;23.316;2023-05-15T03:07:38;15.57;;;12.70;;
29196;SDS011;62796;42.654;23.316;2023-05-15T03:10:05;14.90;;;12.18;;
29196;SDS011;62796;42.654;23.316;2023-05-15T03:12:31;15.98;;;11.90;;
29196;SDS011;62796;42.654;23.316;2023-05-15T03:14:57;16.83;;;13.05;;
29196;SDS011;62796;42.654;23.316;2023-05-15T03:17:22;16.33;;;12.55;;
29196;SDS011;62796;42.654;23.316;2023-05-15T03:19:48;16.85;;;13.35;;
29196;SDS011;62796;42.654;23.316;2023-05-15T03:22:13;17.85;;;13.55;;
29196;SDS011;62796;42.654;23.316;2023-05-15T03:24:39;19.85;;;14.32;;
29196;SDS011;62796;42.654;23.316;2023-05-15T03:27:04;21.10;;;15.60;;
29196;SDS011;62796;42.654;23.316;2023-05-15T03:29:30;19.48;;;14.93;;
29196;SDS011;62796;42.654;23.316;2023-05-15T03:31:55;19.15;;;14.63;;
29196;SDS011;62796;42.654;23.316;2023-05-15T03:34:20;18.98;;;14.18;;
29196;SDS011;62796;42.654;23.316;2023-05-15T03:36:46;20.55;;;14.30;;
29196;SDS011;62796;42.654;23.316;2023-05-15T03:39:12;20.30;;;14.13;;
29196;SDS011;62796;42.654;23.316;2023-05-15T03:41:37;20.33;;;14.50;;
29196;SDS011;62796;42.654;23.316;2023-05-15T03:44:02;16.75;;;13.43;;
29196;SDS011;62796;42.654;23.316;2023-05-15T03:46:28;17.38;;;13.82;;
29196;SDS011;62796;42.654;23.316;2023-05-15T03:48:53;18.70;;;13.93;;
29196;SDS011;62796;42.654;23.316;2023-05-15T03:51:20;20.05;;;12.93;;
29196;SDS011;62796;42.654;23.316;2023-05-15T03:53:46;20.38;;;13.18;;
29196;SDS011;62796;42.654;23.316;2023-05-15T03:56:11;20.25;;;13.38;;
29196;SDS011;62796;42.654;23.316;2023-05-15T03:58:37;22.10;;;14.30;;
29196;SDS011;62796;42.654;23.316;2023-05-15T04:01:02;18.77;;;13.85;;
29196;SDS011;62796;42.654;23.316;2023-05-15T04:03:28;20.10;;;14.57;;
29196;SDS011;62796;42.654;23.316;2023-05-15T04:05:53;18.33;;;14.55;;
29196;SDS011;62796;42.654;23.316;2023-05-15T04:08:19;17.50;;;14.02;;
29196;SDS011;62796;42.654;23.316;2023-05-15T04:10:44;19.00;;;14.40;;
29196;SDS011;62796;42.654;23.316;2023-05-15T04:13:09;20.73;;;14.07;;
29196;SDS011;62796;42.654;23.316;2023-05-15T04:15:35;17.80;;;13.80;;
29196;SDS011;62796;42.654;23.316;2023-05-15T04:18:01;18.88;;;14.02;;
29196;SDS011;62796;42.654;23.316;2023-05-15T04:20:26;16.80;;;14.05;;
29196;SDS011;62796;42.654;23.316;2023-05-15T04:22:52;19.48;;;15.50;;
29196;SDS011;62796;42.654;23.316;2023-05-15T04:25:17;22.05;;;16.65;;
29196;SDS011;62796;42.654;23.316;2023-05-15T04:27:44;21.63;;;15.90;;
29196;SDS011;62796;42.654;23.316;2023-05-15T04:30:10;22.63;;;15.90;;
29196;SDS011;62796;42.654;23.316;2023-05-15T04:32:36;20.98;;;15.82;;
29196;SDS011;62796;42.654;23.316;2023-05-15T04:35:03;18.75;;;14.52;;
29196;SDS011;62796;42.654;23.316;2023-05-15T04:37:30;20.00;;;15.95;;
29196;SDS011;62796;42.654;23.316;2023-05-15T04:39:56;20.48;;;16.20;;
29196;SDS011;62796;42.654;23.316;2023-05-15T04:42:22;18.42;;;15.32;;
29196;SDS011;62796;42.654;23.316;2023-05-15T04:44:47;16.83;;;13.13;;
29196;SDS011;62796;42.654;23.316;2023-05-15T04:47:13;16.08;;;12.52;;
29196;SDS011;62796;42.654;23.316;2023-05-15T04:49:41;18.83;;;12.98;;
29196;SDS011;62796;42.654;23.316;2023-05-15T04:52:07;15.60;;;12.20;;
29196;SDS011;62796;42.654;23.316;2023-05-15T04:54:32;15.38;;;12.40;;
29196;SDS011;62796;42.654;23.316;2023-05-15T04:56:58;18.15;;;14.02;;
29196;SDS011;62796;42.654;23.316;2023-05-15T04:59:23;19.95;;;14.43;;
29196;SDS011;62796;42.654;23.316;2023-05-15T05:01:50;18.95;;;14.63;;
29196;SDS011;62796;42.654;23.316;2023-05-15T05:04:15;20.35;;;14.80;;
29196;SDS011;62796;42.654;23.316;2023-05-15T05:06:44;19.73;;;14.38;;
29196;SDS011;62796;42.654;23.316;2023-05-15T05:09:10;15.60;;;12.82;;
29196;SDS011;62796;42.654;23.316;2023-05-15T05:11:37;15.27;;;11.65;;
29196;SDS011;62796;42.654;23.316;2023-05-15T05:14:03;14.75;;;11.20;;
29196;SDS011;62796;42.654;23.316;2023-05-15T05:16:29;16.70;;;11.48;;
29196;SDS011;62796;42.654;23.316;2023-05-15T05:18:54;14.27;;;11.18;;
29196;SDS011;62796;42.654;23.316;2023-05-15T05:21:20;18.65;;;12.85;;
29196;SDS011;62796;42.654;23.316;2023-05-15T05:23:45;16.25;;;12.35;;
29196;SDS011;62796;42.654;23.316;2023-05-15T05:26:11;17.92;;;13.57;;
29196;SDS011;62796;42.654;23.316;2023-05-15T05:28:36;17.20;;;13.10;;
29196;SDS011;62796;42.654;23.316;2023-05-15T05:31:02;20.90;;;14.70;;
29196;SDS011;62796;42.654;23.316;2023-05-15T05:33:28;20.42;;;14.55;;
29196;SDS011;62796;42.654;23.316;2023-05-15T05:35:53;18.83;;;14.35;;
29196;SDS011;62796;42.654;23.316;2023-05-15T05:38:19;23.10;;;15.40;;
29196;SDS011;62796;42.654;23.316;2023-05-15T05:40:45;22.05;;;15.90;;
29196;SDS011;62796;42.654;23.316;2023-05-15T05:43:10;19.73;;;14.27;;
29196;SDS011;62796;42.654;23.316;2023-05-15T05:45:36;24.92;;;15.18;;
29196;SDS011;62796;42.654;23.316;2023-05-15T05:48:01;22.30;;;16.88;;
29196;SDS011;62796;42.654;23.316;2023-05-15T05:50:26;21.45;;;15.57;;
29196;SDS011;62796;42.654;23.316;2023-05-15T05:52:52;21.70;;;14.77;;
29196;SDS011;62796;42.654;23.316;2023-05-15T05:55:17;23.60;;;15.07;;
29196;SDS011;62796;42.654;23.316;2023-05-15T05:57:43;21.60;;;15.23;;
29196;SDS011;62796;42.654;23.316;2023-05-15T06:00:08;24.02;;;14.73;;
29196;SDS011;62796;42.654;23.316;2023-05-15T06:02:35;20.23;;;13.15;;
29196;SDS011;62796;42.654;23.316;2023-05-15T06:05:02;16.58;;;12.30;;
29196;SDS011;62796;42.654;23.316;2023-05-15T06:07:27;15.93;;;11.75;;
29196;SDS011;62796;42.654;23.316;2023-05-15T06:09:53;19.35;;;11.50;;
29196;SDS011;62796;42.654;23.316;2023-05-15T06:12:18;15.90;;;11.20;;
29196;SDS011;62796;42.654;23.316;2023-05-15T06:14:44;16.10;;;12.02;;
29196;SDS011;62796;42.654;23.316;2023-05-15T06:17:10;14.75;;;11.50;;
29196;SDS011;62796;42.654;23.316;2023-05-15T06:19:35;18.05;;;11.25;;
29196;SDS011;62796;42.654;23.316;2023-05-15T06:22:01;17.67;;;11.27;;
29196;SDS011;62796;42.654;23.316;2023-05-15T06:24:26;16.83;;;12.32;;
29196;SDS011;62796;42.654;23.316;2023-05-15T06:26:52;18.85;;;13.00;;
29196;SDS011;62796;42.654;23.316;2023-05-15T06:29:18;17.38;;;13.32;;
29196;SDS011;62796;42.654;23.316;2023-05-15T06:31:43;16.10;;;12.25;;
29196;SDS011;62796;42.654;23.316;2023-05-15T06:34:08;11.40;;;9.10;;
29196;SDS011;62796;42.654;23.316;2023-05-15T06:36:34;10.90;;;8.55;;
29196;SDS011;62796;42.654;23.316;2023-05-15T06:38:59;12.23;;;9.15;;
29196;SDS011;62796;42.654;23.316;2023-05-15T06:41:25;11.10;;;9.30;;
29196;SDS011;62796;42.654;23.316;2023-05-15T06:43:50;11.88;;;8.65;;
29196;SDS011;62796;42.654;23.316;2023-05-15T06:46:16;11.15;;;8.50;;
29196;SDS011;62796;42.654;23.316;2023-05-15T06:48:43;10.25;;;8.80;;
29196;SDS011;62796;42.654;23.316;2023-05-15T06:51:09;11.82;;;8.35;;
29196;SDS011;62796;42.654;23.316;2023-05-15T06:53:34;12.98;;;8.93;;
29196;SDS011;62796;42.654;23.316;2023-05-15T06:56:00;10.93;;;7.88;;
29196;SDS011;62796;42.654;23.316;2023-05-15T06:58:25;10.63;;;8.30;;
29196;SDS011;62796;42.654;23.316;2023-05-15T07:00:51;12.00;;;8.30;;
29196;SDS011;62796;42.654;23.316;2023-05-15T07:03:16;10.82;;;8.38;;
29196;SDS011;62796;42.654;23.316;2023-05-15T07:05:42;13.07;;;9.48;;
29196;SDS011;62796;42.654;23.316;2023-05-15T07:08:08;14.00;;;10.32;;
29196;SDS011;62796;42.654;23.316;2023-05-15T07:10:33;17.83;;;11.43;;
29196;SDS011;62796;42.654;23.316;2023-05-15T07:13:03;17.38;;;11.73;;
29196;SDS011;62796;42.654;23.316;2023-05-15T07:15:28;13.60;;;10.15;;
29196;SDS011;62796;42.654;23.316;2023-05-15T07:17:54;16.67;;;11.15;;
29196;SDS011;62796;42.654;23.316;2023-05-15T07:20:19;14.25;;;10.85;;
29196;SDS011;62796;42.654;23.316;2023-05-15T07:22:45;17.08;;;10.50;;
29196;SDS011;62796;42.654;23.316;2023-05-15T07:25:10;15.90;;;10.48;;
29196;SDS011;62796;42.654;23.316;2023-05-15T07:27:36;16.05;;;11.20;;
29196;SDS011;62796;42.654;23.316;2023-05-15T07:30:02;17.10;;;10.27;;
29196;SDS011;62796;42.654;23.316;2023-05-15T07:32:28;23.42;;;11.15;;
29196;SDS011;62796;42.654;23.316;2023-05-15T07:34:54;20.52;;;11.75;;
29196;SDS011;62796;42.654;23.316;2023-05-15T07:37:20;16.63;;;11.38;;
29196;SDS011;62796;42.654;23.316;2023-05-15T07:39:47;17.48;;;12.32;;
29196;SDS011;62796;42.654;23.316;2023-05-15T07:42:12;18.83;;;12.32;;
29196;SDS011;62796;42.654;23.316;2023-05-15T07:44:37;21.75;;;13.23;;
29196;SDS011;62796;42.654;23.316;2023-05-15T07:47:03;19.95;;;13.32;;
29196;SDS011;62796;42.654;23.316;2023-05-15T07:49:29;19.48;;;12.40;;
29196;SDS011;62796;42.654;23.316;2023-05-15T07:51:54;17.98;;;12.27;;
29196;SDS011;62796;42.654;23.316;2023-05-15T07:54:20;18.75;;;12.80;;
29196;SDS011;62796;42.654;23.316;2023-05-15T07:56:45;19.60;;;12.98;;
29196;SDS011;62796;42.654;23.316;2023-05-15T07:59:11;24.45;;;13.70;;
29196;SDS011;62796;42.654;23.316;2023-05-15T08:01:36;24.67;;;14.50;;
29196;SDS011;62796;42.654;23.316;2023-05-15T08:04:04;23.52;;;16.52;;
29196;SDS011;62796;42.654;23.316;2023-05-15T08:06:31;26.77;;;16.92;;
29196;SDS011;62796;42.654;23.316;2023-05-15T08:08:56;23.42;;;16.60;;
29196;SDS011;62796;42.654;23.316;2023-05-15T08:11:22;27.67;;;16.45;;
29196;SDS011;62796;42.654;23.316;2023-05-15T08:13:47;28.38;;;17.00;;
29196;SDS011;62796;42.654;23.316;2023-05-15T08:16:13;26.50;;;19.05;;
29196;SDS011;62796;42.654;23.316;2023-05-15T08:18:38;27.85;;;17.08;;
29196;SDS011;62796;42.654;23.316;2023-05-15T08:21:04;27.85;;;17.80;;
29196;SDS011;62796;42.654;23.316;2023-05-15T08:23:29;26.33;;;18.27;;
29196;SDS011;62796;42.654;23.316;2023-05-15T08:25:55;23.95;;;18.33;;
29196;SDS011;62796;42.654;23.316;2023-05-15T08:28:20;30.77;;;20.60;;
29196;SDS011;62796;42.654;23.316;2023-05-15T08:30:46;28.75;;;19.02;;
29196;SDS011;62796;42.654;23.316;2023-05-15T08:33:11;27.85;;;19.40;;
29196;SDS011;62796;42.654;23.316;2023-05-15T08:35:36;30.58;;;19.15;;
29196;SDS011;62796;42.654;23.316;2023-05-15T08:38:02;30.33;;;18.15;;
29196;SDS011;62796;42.654;23.316;2023-05-15T08:40:27;30.95;;;17.75;;
29196;SDS011;62796;42.654;23.316;2023-05-15T08:42:54;25.85;;;17.10;;
29196;SDS011;62796;42.654;23.316;2023-05-15T08:45:23;26.95;;;17.65;;
29196;SDS011;62796;42.654;23.316;2023-05-15T08:47:50;25.92;;;17.20;;
29196;SDS011;62796;42.654;23.316;2023-05-15T08:50:15;26.42;;;17.35;;
29196;SDS011;62796;42.654;23.316;2023-05-15T08:52:42;24.77;;;17.70;;
29196;SDS011;62796;42.654;23.316;2023-05-15T08:55:11;26.63;;;18.15;;
29196;SDS011;62796;42.654;23.316;2023-05-15T08:57:37;25.02;;;17.50;;
29196;SDS011;62796;42.654;23.316;2023-05-15T09:00:04;24.80;;;16.95;;
29196;SDS011;62796;42.654;23.316;2023-05-15T09:02:36;25.95;;;16.08;;
29196;SDS011;62796;42.654;23.316;2023-05-15T09:05:04;24.63;;;17.25;;
29196;SDS011;62796;42.654;23.316;2023-05-15T09:07:30;25.88;;;16.67;;
29196;SDS011;62796;42.654;23.316;2023-05-15T09:09:57;22.98;;;15.90;;
29196;SDS011;62796;42.654;23.316;2023-05-15T09:12:24;19.30;;;14.15;;
29196;SDS011;62796;42.654;23.316;2023-05-15T09:14:50;21.02;;;14.60;;
29196;SDS011;62796;42.654;23.316;2023-05-15T09:17:16;22.77;;;15.77;;
29196;SDS011;62796;42.654;23.316;2023-05-15T09:19:42;20.70;;;14.65;;
29196;SDS011;62796;42.654;23.316;2023-05-15T09:22:14;22.55;;;15.43;;
29196;SDS011;62796;42.654;23.316;2023-05-15T09:24:47;22.08;;;15.60;;
29196;SDS011;62796;42.654;23.316;2023-05-15T09:27:15;23.88;;;16.35;;
29196;SDS011;62796;42.654;23.316;2023-05-15T09:29:41;26.45;;;15.82;;
29196;SDS011;62796;42.654;23.316;2023-05-15T09:32:07;21.48;;;15.77;;
29196;SDS011;62796;42.654;23.316;2023-05-15T09:34:35;23.75;;;14.00;;
29196;SDS011;62796;42.654;23.316;2023-05-15T09:37:03;22.90;;;14.20;;
29196;SDS011;62796;42.654;23.316;2023-05-15T09:39:31;20.23;;;14.45;;
29196;SDS011;62796;42.654;23.316;2023-05-15T09:42:11;21.85;;;14.55;;
29196;SDS011;62796;42.654;23.316;2023-05-15T09:44:44;22.20;;;14.57;;
29196;SDS011;62796;42.654;23.316;2023-05-15T09:47:13;22.25;;;16.90;;
29196;SDS011;62796;42.654;23.316;2023-05-15T09:49:42;26.13;;;16.05;;
29196;SDS011;62796;42.654;23.316;2023-05-15T09:52:08;24.63;;;16.52;;
29196;SDS011;62796;42.654;23.316;2023-05-15T09:54:35;27.10;;;17.98;;
29196;SDS011;62796;42.654;23.316;2023-05-15T09:57:08;24.38;;;16.13;;
29196;SDS011;62796;42.654;23.316;2023-05-15T09:59:34;23.00;;;16.07;;
29196;SDS011;62796;42.654;23.316;2023-05-15T10:02:00;23.48;;;14.35;;
29196;SDS011;62796;42.654;23.316;2023-05-15T10:04:25;24.40;;;15.10;;
29196;SDS011;62796;42.654;23.316;2023-05-15T10:06:51;21.55;;;13.82;;
29196;SDS011;62796;42.654;23.316;2023-05-15T10:09:17;20.83;;;14.80;;
29196;SDS011;62796;42.654;23.316;2023-05-15T10:11:49;22.77;;;14.50;;
29196;SDS011;62796;42.654;23.316;2023-05-15T10:16:42;19.83;;;13.52;;
29196;SDS011;62796;42.654;23.316;2023-05-15T10:19:10;24.83;;;14.15;;
29196;SDS011;62796;42.654;23.316;2023-05-15T10:21:37;17.73;;;14.05;;
29196;SDS011;62796;42.654;23.316;2023-05-15T10:24:04;22.42;;;14.45;;
29196;SDS011;62796;42.654;23.316;2023-05-15T10:26:40;26.00;;;15.00;;
29196;SDS011;62796;42.654;23.316;2023-05-15T10:29:13;22.58;;;14.32;;
29196;SDS011;62796;42.654;23.316;2023-05-15T10:31:45;23.75;;;14.88;;
29196;SDS011;62796;42.654;23.316;2023-05-15T10:34:13;26.55;;;16.35;;
29196;SDS011;62796;42.654;23.316;2023-05-15T10:36:39;26.30;;;17.80;;
29196;SDS011;62796;42.654;23.316;2023-05-15T10:39:06;21.40;;;14.52;;
29196;SDS011;62796;42.654;23.316;2023-05-15T10:41:33;20.55;;;14.45;;
29196;SDS011;62796;42.654;23.316;2023-05-15T10:44:00;25.90;;;14.57;;
29196;SDS011;62796;42.654;23.316;2023-05-15T10:46:27;24.23;;;14.52;;
29196;SDS011;62796;42.654;23.316;2023-05-15T10:48:54;26.42;;;15.13;;
29196;SDS011;62796;42.654;23.316;2023-05-15T10:51:26;23.67;;;13.98;;
29196;SDS011;62796;42.654;23.316;2023-05-15T10:53:53;24.70;;;15.13;;
29196;SDS011;62796;42.654;23.316;2023-05-15T10:56:24;25.95;;;14.77;;
29196;SDS011;62796;42.654;23.316;2023-05-15T10:58:50;21.77;;;14.43;;
29196;SDS011;62796;42.654;23.316;2023-05-15T11:06:38;21.88;;;14.65;;
29196;SDS011;62796;42.654;23.316;2023-05-15T11:11:52;16.92;;;12.90;;
29196;SDS011;62796;42.654;23.316;2023-05-15T11:22:20;19.77;;;12.93;;
29196;SDS011;62796;42.654;23.316;2023-05-15T11:27:22;21.02;;;14.00;;
29196;SDS011;62796;42.654;23.316;2023-05-15T11:32:49;18.75;;;14.07;;
29196;SDS011;62796;42.654;23.316;2023-05-15T11:35:24;23.92;;;13.25;;
29196;SDS011;62796;42.654;23.316;2023-05-15T11:37:52;26.33;;;13.35;;
29196;SDS011;62796;42.654;23.316;2023-05-15T11:40:30;21.00;;;12.38;;
29196;SDS011;62796;42.654;23.316;2023-05-15T11:43:04;27.02;;;13.38;;
29196;SDS011;62796;42.654;23.316;2023-05-15T11:45:32;22.13;;;12.55;;
29196;SDS011;62796;42.654;23.316;2023-05-15T11:48:02;21.73;;;12.88;;
29196;SDS011;62796;42.654;23.316;2023-05-15T11:50:30;21.88;;;13.65;;
29196;SDS011;62796;42.654;23.316;2023-05-15T11:53:00;17.05;;;13.23;;
29196;SDS011;62796;42.654;23.316;2023-05-15T11:55:28;18.48;;;12.80;;
29196;SDS011;62796;42.654;23.316;2023-05-15T11:57:55;20.45;;;13.90;;
29196;SDS011;62796;42.654;23.316;2023-05-15T12:00:21;20.77;;;12.80;;
29196;SDS011;62796;42.654;23.316;2023-05-15T12:02:46;21.92;;;12.15;;
29196;SDS011;62796;42.654;23.316;2023-05-15T12:05:12;21.45;;;12.75;;
29196;SDS011;62796;42.654;23.316;2023-05-15T12:07:38;19.80;;;13.55;;
29196;SDS011;62796;42.654;23.316;2023-05-15T12:10:05;22.05;;;13.52;;
29196;SDS011;62796;42.654;23.316;2023-05-15T12:12:34;19.50;;;14.40;;
29196;SDS011;62796;42.654;23.316;2023-05-15T12:15:00;20.30;;;14.27;;
29196;SDS011;62796;42.654;23.316;2023-05-15T12:17:26;21.88;;;14.57;;
29196;SDS011;62796;42.654;23.316;2023-05-15T12:19:51;27.98;;;14.27;;
29196;SDS011;62796;42.654;23.316;2023-05-15T12:22:17;21.73;;;13.85;;
29196;SDS011;62796;42.654;23.316;2023-05-15T12:24:43;23.20;;;15.02;;
29196;SDS011;62796;42.654;23.316;2023-05-15T12:27:09;21.95;;;13.88;;
29196;SDS011;62796;42.654;23.316;2023-05-15T12:29:36;21.35;;;12.38;;
29196;SDS011;62796;42.654;23.316;2023-05-15T12:32:03;18.33;;;12.70;;
29196;SDS011;62796;42.654;23.316;2023-05-15T12:34:29;19.70;;;12.32;;
29196;SDS011;62796;42.654;23.316;2023-05-15T12:36:55;21.23;;;11.50;;
29196;SDS011;62796;42.654;23.316;2023-05-15T12:39:20;17.77;;;12.23;;
29196;SDS011;62796;42.654;23.316;2023-05-15T12:41:46;21.75;;;12.65;;
29196;SDS011;62796;42.654;23.316;2023-05-15T12:44:16;19.15;;;12.18;;
29196;SDS011;62796;42.654;23.316;2023-05-15T12:46:42;18.15;;;11.85;;
29196;SDS011;62796;42.654;23.316;2023-05-15T12:49:08;21.25;;;13.05;;
29196;SDS011;62796;42.654;23.316;2023-05-15T12:51:40;22.23;;;13.45;;
29196;SDS011;62796;42.654;23.316;2023-05-15T12:54:14;24.83;;;12.50;;
29196;SDS011;62796;42.654;23.316;2023-05-15T12:56:40;22.85;;;13.18;;
29196;SDS011;62796;42.654;23.316;2023-05-15T12:59:06;23.25;;;13.02;;
29196;SDS011;62796;42.654;23.316;2023-05-15T13:01:31;22.77;;;13.38;;
29196;SDS011;62796;42.654;23.316;2023-05-15T13:03:57;20.45;;;13.13;;
29196;SDS011;62796;42.654;23.316;2023-05-15T13:06:22;23.02;;;12.93;;
29196;SDS011;62796;42.654;23.316;2023-05-15T13:08:48;21.58;;;12.55;;
29196;SDS011;62796;42.654;23.316;2023-05-15T13:11:15;23.27;;;13.68;;
29196;SDS011;62796;42.654;23.316;2023-05-15T13:13:42;24.75;;;13.90;;
29196;SDS011;62796;42.654;23.316;2023-05-15T13:16:25;20.83;;;13.02;;
29196;SDS011;62796;42.654;23.316;2023-05-15T13:18:54;23.00;;;11.07;;
29196;SDS011;62796;42.654;23.316;2023-05-15T13:21:21;26.65;;;11.77;;
29196;SDS011;62796;42.654;23.316;2023-05-15T13:23:46;19.50;;;10.57;;
29196;SDS011;62796;42.654;23.316;2023-05-15T13:26:12;20.52;;;11.48;;
29196;SDS011;62796;42.654;23.316;2023-05-15T13:28:38;15.43;;;10.88;;
29196;SDS011;62796;42.654;23.316;2023-05-15T13:31:03;21.30;;;10.25;;
29196;SDS011;62796;42.654;23.316;2023-05-15T13:33:29;18.10;;;9.60;;
29196;SDS011;62796;42.654;23.316;2023-05-15T13:35:55;25.25;;;9.27;;
29196;SDS011;62796;42.654;23.316;2023-05-15T13:38:21;17.75;;;9.10;;
29196;SDS011;62796;42.654;23.316;2023-05-15T13:40:47;18.40;;;9.70;;
29196;SDS011;62796;42.654;23.316;2023-05-15T13:43:12;18.98;;;9.95;;
29196;SDS011;62796;42.654;23.316;2023-05-15T13:45:37;21.42;;;9.32;;
29196;SDS011;62796;42.654;23.316;2023-05-15T13:48:03;14.40;;;9.10;;
29196;SDS011;62796;42.654;23.316;2023-05-15T13:50:29;15.95;;;9.25;;
29196;SDS011;62796;42.654;23.316;2023-05-15T13:52:54;17.23;;;8.90;;
29196;SDS011;62796;42.654;23.316;2023-05-15T13:55:20;18.73;;;9.75;;
29196;SDS011;62796;42.654;23.316;2023-05-15T13:57:45;17.48;;;9.65;;
29196;SDS011;62796;42.654;23.316;2023-05-15T14:00:11;19.60;;;8.63;;
29196;SDS011;62796;42.654;23.316;2023-05-15T14:02:42;14.10;;;8.45;;
29196;SDS011;62796;42.654;23.316;2023-05-15T14:05:08;14.43;;;8.40;;
29196;SDS011;62796;42.654;23.316;2023-05-15T14:07:35;20.13;;;8.77;;
29196;SDS011;62796;42.654;23.316;2023-05-15T14:10:00;24.23;;;9.40;;
29196;SDS011;62796;42.654;23.316;2023-05-15T14:12:26;18.45;;;10.15;;
29196;SDS011;62796;42.654;23.316;2023-05-15T14:14:51;16.70;;;9.70;;
29196;SDS011;62796;42.654;23.316;2023-05-15T14:17:17;24.25;;;10.05;;
29196;SDS011;62796;42.654;23.316;2023-05-15T14:19:42;20.65;;;11.55;;
29196;SDS011;62796;42.654;23.316;2023-05-15T14:22:08;17.55;;;12.02;;
29196;SDS011;62796;42.654;23.316;2023-05-15T14:24:34;16.65;;;10.80;;
29196;SDS011;62796;42.654;23.316;2023-05-15T14:26:59;27.45;;;10.90;;
29196;SDS011;62796;42.654;23.316;2023-05-15T14:29:25;19.17;;;11.55;;
29196;SDS011;62796;42.654;23.316;2023-05-15T14:31:50;17.42;;;11.18;;
29196;SDS011;62796;42.654;23.316;2023-05-15T14:34:17;23.23;;;11.05;;
29196;SDS011;62796;42.654;23.316;2023-05-15T14:36:43;17.23;;;10.25;;
29196;SDS011;62796;42.654;23.316;2023-05-15T14:39:08;16.13;;;10.10;;
29196;SDS011;62796;42.654;23.316;2023-05-15T14:41:33;17.77;;;9.73;;
29196;SDS011;62796;42.654;23.316;2023-05-15T14:43:59;17.48;;;10.70;;
29196;SDS011;62796;42.654;23.316;2023-05-15T14:46:24;18.13;;;10.90;;
29196;SDS011;62796;42.654;23.316;2023-05-15T14:48:50;22.23;;;10.52;;
29196;SDS011;62796;42.654;23.316;2023-05-15T14:51:15;26.60;;;10.02;;